sensor_id;sensor_type;location;lat;lon;timestamp;temperature;humidity
12111;DHT22;6119;52.372;8.990;2023-12-07T00:00:13;4.10;99.90
12111;DHT22;6119;52.372;8.990;2023-12-07T00:03:00;4.10;99.90
12111;DHT22;6119;52.372;8.990;2023-12-07T00:05:47;4.20;99.90
12111;DHT22;6119;52.372;8.990;2023-12-07T00:08:33;6.20;99.90
12111;DHT22;6119;52.372;8.990;2023-12-07T00:11:23;4.20;99.90
12111;DHT22;6119;52.372;8.990;2023-12-07T00:14:09;4.20;99.90
12111;DHT22;6119;52.372;8.990;2023-12-07T00:16:56;4.20;99.90
12111;DHT22;6119;52.372;8.990;2023-12-07T00:19:42;4.10;99.90
12111;DHT22;6119;52.372;8.990;2023-12-07T00:22:29;4.10;99.90
12111;DHT22;6119;52.372;8.990;2023-12-07T00:25:15;4.10;99.90
12111;DHT22;6119;52.372;8.990;2023-12-07T00:28:04;4.10;99.90
12111;DHT22;6119;52.372;8.990;2023-12-07T00:30:51;4.20;99.90
12111;DHT22;6119;52.372;8.990;2023-12-07T00:33:38;4.20;99.90
12111;DHT22;6119;52.372;8.990;2023-12-07T00:36:24;4.20;99.90
12111;DHT22;6119;52.372;8.990;2023-12-07T00:39:12;4.30;99.90
12111;DHT22;6119;52.372;8.990;2023-12-07T00:41:58;4.20;99.90
12111;DHT22;6119;52.372;8.990;2023-12-07T00:44:46;4.20;99.90
12111;DHT22;6119;52.372;8.990;2023-12-07T00:47:33;4.10;99.90
12111;DHT22;6119;52.372;8.990;2023-12-07T00:50:19;4.10;99.90
12111;DHT22;6119;52.372;8.990;2023-12-07T00:53:06;4.10;99.90
12111;DHT22;6119;52.372;8.990;2023-12-07T00:55:52;4.30;99.90
12111;DHT22;6119;52.372;8.990;2023-12-07T00:58:39;4.20;99.90
12111;DHT22;6119;52.372;8.990;2023-12-07T01:01:27;4.20;99.90
12111;DHT22;6119;52.372;8.990;2023-12-07T01:04:14;4.20;99.90
12111;DHT22;6119;52.372;8.990;2023-12-07T01:07:01;4.20;99.90
12111;DHT22;6119;52.372;8.990;2023-12-07T01:09:48;4.20;99.90
12111;DHT22;6119;52.372;8.990;2023-12-07T01:12:35;4.20;99.90
12111;DHT22;6119;52.372;8.990;2023-12-07T01:15:22;4.20;99.90
12111;DHT22;6119;52.372;8.990;2023-12-07T01:18:09;4.20;99.90
12111;DHT22;6119;52.372;8.990;2023-12-07T01:20:56;4.20;99.90
12111;DHT22;6119;52.372;8.990;2023-12-07T01:23:43;4.10;99.90
12111;DHT22;6119;52.372;8.990;2023-12-07T01:26:30;4.20;99.90
12111;DHT22;6119;52.372;8.990;2023-12-07T01:29:17;4.20;99.90
12111;DHT22;6119;52.372;8.990;2023-12-07T01:32:04;4.10;99.90
12111;DHT22;6119;52.372;8.990;2023-12-07T01:34:52;4.20;99.90
12111;DHT22;6119;52.372;8.990;2023-12-07T01:37:39;4.20;99.90
12111;DHT22;6119;52.372;8.990;2023-12-07T01:40:26;4.20;99.90
12111;DHT22;6119;52.372;8.990;2023-12-07T01:43:12;4.30;99.90
12111;DHT22;6119;52.372;8.990;2023-12-07T01:45:59;4.20;99.90
12111;DHT22;6119;52.372;8.990;2023-12-07T01:48:47;4.20;99.90
12111;DHT22;6119;52.372;8.990;2023-12-07T01:51:36;4.20;99.90
12111;DHT22;6119;52.372;8.990;2023-12-07T01:54:23;4.30;99.90
12111;DHT22;6119;52.372;8.990;2023-12-07T01:57:09;4.10;99.90
12111;DHT22;6119;52.372;8.990;2023-12-07T01:59:56;4.20;99.90
12111;DHT22;6119;52.372;8.990;2023-12-07T02:02:44;4.30;99.90
12111;DHT22;6119;52.372;8.990;2023-12-07T02:05:31;4.30;99.90
12111;DHT22;6119;52.372;8.990;2023-12-07T02:08:20;4.20;99.90
12111;DHT22;6119;52.372;8.990;2023-12-07T02:11:07;4.30;99.90
12111;DHT22;6119;52.372;8.990;2023-12-07T02:13:55;4.20;99.90
12111;DHT22;6119;52.372;8.990;2023-12-07T02:16:46;4.30;99.90
12111;DHT22;6119;52.372;8.990;2023-12-07T02:19:52;4.40;99.90
12111;DHT22;6119;52.372;8.990;2023-12-07T02:22:42;4.30;99.90
12111;DHT22;6119;52.372;8.990;2023-12-07T02:25:36;4.40;99.90
12111;DHT22;6119;52.372;8.990;2023-12-07T02:28:25;4.30;99.90
12111;DHT22;6119;52.372;8.990;2023-12-07T02:31:11;4.10;99.90
12111;DHT22;6119;52.372;8.990;2023-12-07T02:33:58;4.10;99.90
12111;DHT22;6119;52.372;8.990;2023-12-07T02:36:46;4.30;99.90
12111;DHT22;6119;52.372;8.990;2023-12-07T02:39:34;4.20;99.90
12111;DHT22;6119;52.372;8.990;2023-12-07T02:42:21;4.20;99.90
12111;DHT22;6119;52.372;8.990;2023-12-07T02:45:11;4.30;99.90
12111;DHT22;6119;52.372;8.990;2023-12-07T02:47:58;4.30;99.90
12111;DHT22;6119;52.372;8.990;2023-12-07T02:50:44;4.30;99.90
12111;DHT22;6119;52.372;8.990;2023-12-07T02:53:31;4.30;99.90
12111;DHT22;6119;52.372;8.990;2023-12-07T02:56:18;4.40;99.90
12111;DHT22;6119;52.372;8.990;2023-12-07T02:59:05;4.30;99.90
12111;DHT22;6119;52.372;8.990;2023-12-07T03:01:52;4.20;99.90
12111;DHT22;6119;52.372;8.990;2023-12-07T03:04:39;4.30;99.90
12111;DHT22;6119;52.372;8.990;2023-12-07T03:07:26;4.30;99.90
12111;DHT22;6119;52.372;8.990;2023-12-07T03:10:12;4.40;99.90
12111;DHT22;6119;52.372;8.990;2023-12-07T03:12:59;4.20;99.90
12111;DHT22;6119;52.372;8.990;2023-12-07T03:15:46;4.30;99.90
12111;DHT22;6119;52.372;8.990;2023-12-07T03:18:34;4.30;99.90
12111;DHT22;6119;52.372;8.990;2023-12-07T03:21:20;4.30;99.90
12111;DHT22;6119;52.372;8.990;2023-12-07T03:24:07;4.30;99.90
12111;DHT22;6119;52.372;8.990;2023-12-07T03:26:54;4.40;99.90
12111;DHT22;6119;52.372;8.990;2023-12-07T03:29:40;4.30;99.90
12111;DHT22;6119;52.372;8.990;2023-12-07T03:32:27;4.30;99.90
12111;DHT22;6119;52.372;8.990;2023-12-07T03:35:15;4.30;99.90
12111;DHT22;6119;52.372;8.990;2023-12-07T03:38:02;4.20;99.90
12111;DHT22;6119;52.372;8.990;2023-12-07T03:40:48;4.30;99.90
12111;DHT22;6119;52.372;8.990;2023-12-07T03:43:36;4.30;99.90
12111;DHT22;6119;52.372;8.990;2023-12-07T03:46:22;4.40;99.90
12111;DHT22;6119;52.372;8.990;2023-12-07T03:49:09;4.30;99.90
12111;DHT22;6119;52.372;8.990;2023-12-07T03:51:57;4.30;99.90
12111;DHT22;6119;52.372;8.990;2023-12-07T03:54:43;4.20;99.90
12111;DHT22;6119;52.372;8.990;2023-12-07T03:57:30;4.20;99.90
12111;DHT22;6119;52.372;8.990;2023-12-07T04:00:16;4.20;99.90
12111;DHT22;6119;52.372;8.990;2023-12-07T04:03:03;4.20;99.90
12111;DHT22;6119;52.372;8.990;2023-12-07T04:05:50;4.20;99.90
12111;DHT22;6119;52.372;8.990;2023-12-07T04:08:38;4.10;99.90
12111;DHT22;6119;52.372;8.990;2023-12-07T04:11:25;4.20;99.90
12111;DHT22;6119;52.372;8.990;2023-12-07T04:14:12;4.30;99.90
12111;DHT22;6119;52.372;8.990;2023-12-07T04:16:58;4.20;99.90
12111;DHT22;6119;52.372;8.990;2023-12-07T04:19:45;4.30;99.90
12111;DHT22;6119;52.372;8.990;2023-12-07T04:22:32;4.40;99.90
12111;DHT22;6119;52.372;8.990;2023-12-07T04:25:19;4.30;99.90
12111;DHT22;6119;52.372;8.990;2023-12-07T04:28:07;4.30;99.90
12111;DHT22;6119;52.372;8.990;2023-12-07T04:30:54;4.30;99.90
12111;DHT22;6119;52.372;8.990;2023-12-07T04:33:42;4.30;99.90
12111;DHT22;6119;52.372;8.990;2023-12-07T04:36:29;4.40;99.90
12111;DHT22;6119;52.372;8.990;2023-12-07T04:39:15;4.40;99.90
12111;DHT22;6119;52.372;8.990;2023-12-07T04:42:04;4.20;99.90
12111;DHT22;6119;52.372;8.990;2023-12-07T04:44:50;4.40;99.90
12111;DHT22;6119;52.372;8.990;2023-12-07T04:47:37;4.40;99.90
12111;DHT22;6119;52.372;8.990;2023-12-07T04:50:24;4.30;99.90
12111;DHT22;6119;52.372;8.990;2023-12-07T04:53:10;4.40;99.90
12111;DHT22;6119;52.372;8.990;2023-12-07T04:55:56;4.30;99.90
12111;DHT22;6119;52.372;8.990;2023-12-07T04:58:44;4.30;99.90
12111;DHT22;6119;52.372;8.990;2023-12-07T05:01:31;4.30;99.90
12111;DHT22;6119;52.372;8.990;2023-12-07T05:04:18;4.40;99.90
12111;DHT22;6119;52.372;8.990;2023-12-07T05:07:04;4.40;99.90
12111;DHT22;6119;52.372;8.990;2023-12-07T05:09:51;4.40;99.90
12111;DHT22;6119;52.372;8.990;2023-12-07T05:12:38;4.20;99.90
12111;DHT22;6119;52.372;8.990;2023-12-07T05:15:26;4.30;99.90
12111;DHT22;6119;52.372;8.990;2023-12-07T05:18:13;4.30;99.90
12111;DHT22;6119;52.372;8.990;2023-12-07T05:21:00;4.20;99.90
12111;DHT22;6119;52.372;8.990;2023-12-07T05:23:46;4.30;99.90
12111;DHT22;6119;52.372;8.990;2023-12-07T05:26:33;4.40;99.90
12111;DHT22;6119;52.372;8.990;2023-12-07T05:29:20;4.30;99.90
12111;DHT22;6119;52.372;8.990;2023-12-07T05:32:08;4.20;99.90
12111;DHT22;6119;52.372;8.990;2023-12-07T05:34:55;4.30;99.90
12111;DHT22;6119;52.372;8.990;2023-12-07T05:37:41;4.30;99.90
12111;DHT22;6119;52.372;8.990;2023-12-07T05:40:28;4.40;99.90
12111;DHT22;6119;52.372;8.990;2023-12-07T05:43:14;4.30;99.90
12111;DHT22;6119;52.372;8.990;2023-12-07T05:46:03;4.40;99.90
12111;DHT22;6119;52.372;8.990;2023-12-07T05:48:52;4.40;99.90
12111;DHT22;6119;52.372;8.990;2023-12-07T05:51:41;4.40;99.90
12111;DHT22;6119;52.372;8.990;2023-12-07T05:54:28;4.40;99.90
12111;DHT22;6119;52.372;8.990;2023-12-07T05:57:15;4.30;99.90
12111;DHT22;6119;52.372;8.990;2023-12-07T06:00:01;4.40;99.90
12111;DHT22;6119;52.372;8.990;2023-12-07T06:02:49;4.30;99.90
12111;DHT22;6119;52.372;8.990;2023-12-07T06:05:38;4.40;99.90
12111;DHT22;6119;52.372;8.990;2023-12-07T06:08:25;4.40;99.90
12111;DHT22;6119;52.372;8.990;2023-12-07T06:11:12;4.30;99.90
12111;DHT22;6119;52.372;8.990;2023-12-07T06:13:58;4.40;99.90
12111;DHT22;6119;52.372;8.990;2023-12-07T06:16:45;4.40;99.90
12111;DHT22;6119;52.372;8.990;2023-12-07T06:19:31;4.40;99.90
12111;DHT22;6119;52.372;8.990;2023-12-07T06:22:19;4.40;99.90
12111;DHT22;6119;52.372;8.990;2023-12-07T06:25:07;4.40;99.90
12111;DHT22;6119;52.372;8.990;2023-12-07T06:27:54;4.50;99.90
12111;DHT22;6119;52.372;8.990;2023-12-07T06:30:41;4.50;99.90
12111;DHT22;6119;52.372;8.990;2023-12-07T06:33:28;4.40;99.90
12111;DHT22;6119;52.372;8.990;2023-12-07T06:36:18;4.40;99.90
12111;DHT22;6119;52.372;8.990;2023-12-07T06:39:07;4.40;99.90
12111;DHT22;6119;52.372;8.990;2023-12-07T06:41:54;4.40;99.90
12111;DHT22;6119;52.372;8.990;2023-12-07T06:44:42;4.50;99.90
12111;DHT22;6119;52.372;8.990;2023-12-07T06:47:29;4.40;99.90
12111;DHT22;6119;52.372;8.990;2023-12-07T06:50:16;4.40;99.90
12111;DHT22;6119;52.372;8.990;2023-12-07T06:53:03;4.40;99.90
12111;DHT22;6119;52.372;8.990;2023-12-07T06:55:50;4.40;99.90
12111;DHT22;6119;52.372;8.990;2023-12-07T06:58:37;4.40;99.90
12111;DHT22;6119;52.372;8.990;2023-12-07T07:01:24;4.40;99.90
12111;DHT22;6119;52.372;8.990;2023-12-07T07:04:12;4.40;99.90
12111;DHT22;6119;52.372;8.990;2023-12-07T07:06:59;4.40;99.90
12111;DHT22;6119;52.372;8.990;2023-12-07T07:09:45;4.30;99.90
12111;DHT22;6119;52.372;8.990;2023-12-07T07:12:33;4.20;99.90
12111;DHT22;6119;52.372;8.990;2023-12-07T07:15:20;4.20;99.90
12111;DHT22;6119;52.372;8.990;2023-12-07T07:18:08;4.30;99.90
12111;DHT22;6119;52.372;8.990;2023-12-07T07:20:55;4.30;99.90
12111;DHT22;6119;52.372;8.990;2023-12-07T07:23:41;4.20;99.90
12111;DHT22;6119;52.372;8.990;2023-12-07T07:26:28;4.20;99.90
12111;DHT22;6119;52.372;8.990;2023-12-07T07:29:16;4.10;99.90
12111;DHT22;6119;52.372;8.990;2023-12-07T07:32:04;4.20;99.90
12111;DHT22;6119;52.372;8.990;2023-12-07T07:34:51;4.30;99.90
12111;DHT22;6119;52.372;8.990;2023-12-07T07:37:38;4.20;99.90
12111;DHT22;6119;52.372;8.990;2023-12-07T07:40:25;4.20;99.90
12111;DHT22;6119;52.372;8.990;2023-12-07T07:43:12;4.20;99.90
12111;DHT22;6119;52.372;8.990;2023-12-07T07:46:00;4.20;99.90
12111;DHT22;6119;52.372;8.990;2023-12-07T07:48:46;4.20;99.90
12111;DHT22;6119;52.372;8.990;2023-12-07T07:51:33;4.30;99.90
12111;DHT22;6119;52.372;8.990;2023-12-07T07:54:20;4.30;99.90
12111;DHT22;6119;52.372;8.990;2023-12-07T07:57:07;4.30;99.90
12111;DHT22;6119;52.372;8.990;2023-12-07T07:59:53;4.20;99.90
12111;DHT22;6119;52.372;8.990;2023-12-07T08:02:41;4.20;99.90
12111;DHT22;6119;52.372;8.990;2023-12-07T08:05:28;4.30;99.90
12111;DHT22;6119;52.372;8.990;2023-12-07T08:08:15;4.20;99.90
12111;DHT22;6119;52.372;8.990;2023-12-07T08:11:01;4.10;99.90
12111;DHT22;6119;52.372;8.990;2023-12-07T08:13:48;4.10;99.90
12111;DHT22;6119;52.372;8.990;2023-12-07T08:16:35;4.10;99.90
12111;DHT22;6119;52.372;8.990;2023-12-07T08:19:23;4.20;99.90
12111;DHT22;6119;52.372;8.990;2023-12-07T08:22:10;4.20;99.90
12111;DHT22;6119;52.372;8.990;2023-12-07T08:24:57;4.30;99.90
12111;DHT22;6119;52.372;8.990;2023-12-07T08:27:55;4.20;99.90
12111;DHT22;6119;52.372;8.990;2023-12-07T08:30:42;4.30;99.90
12111;DHT22;6119;52.372;8.990;2023-12-07T08:33:28;4.20;99.90
12111;DHT22;6119;52.372;8.990;2023-12-07T08:36:17;4.20;99.90
12111;DHT22;6119;52.372;8.990;2023-12-07T08:39:03;4.10;99.90
12111;DHT22;6119;52.372;8.990;2023-12-07T08:41:54;4.30;99.90
12111;DHT22;6119;52.372;8.990;2023-12-07T08:44:43;4.20;99.90
12111;DHT22;6119;52.372;8.990;2023-12-07T08:47:29;4.20;99.90
12111;DHT22;6119;52.372;8.990;2023-12-07T08:50:17;4.20;99.90
12111;DHT22;6119;52.372;8.990;2023-12-07T08:53:05;4.20;99.90
12111;DHT22;6119;52.372;8.990;2023-12-07T08:55:53;4.30;99.90
12111;DHT22;6119;52.372;8.990;2023-12-07T08:58:39;4.30;99.90
12111;DHT22;6119;52.372;8.990;2023-12-07T09:01:26;4.30;99.90
12111;DHT22;6119;52.372;8.990;2023-12-07T09:04:17;4.30;99.90
12111;DHT22;6119;52.372;8.990;2023-12-07T09:07:03;4.30;99.90
12111;DHT22;6119;52.372;8.990;2023-12-07T09:09:52;4.40;99.90
12111;DHT22;6119;52.372;8.990;2023-12-07T09:12:39;4.30;99.90
12111;DHT22;6119;52.372;8.990;2023-12-07T09:15:26;4.40;99.90
12111;DHT22;6119;52.372;8.990;2023-12-07T09:18:13;4.40;99.90
12111;DHT22;6119;52.372;8.990;2023-12-07T09:21:00;4.40;99.90
12111;DHT22;6119;52.372;8.990;2023-12-07T09:23:46;4.50;99.90
12111;DHT22;6119;52.372;8.990;2023-12-07T09:26:34;4.40;99.90
12111;DHT22;6119;52.372;8.990;2023-12-07T09:29:22;4.50;99.90
12111;DHT22;6119;52.372;8.990;2023-12-07T09:32:09;4.50;99.90
12111;DHT22;6119;52.372;8.990;2023-12-07T09:34:57;4.50;99.90
12111;DHT22;6119;52.372;8.990;2023-12-07T09:37:44;4.50;99.90
12111;DHT22;6119;52.372;8.990;2023-12-07T09:40:31;4.60;99.90
12111;DHT22;6119;52.372;8.990;2023-12-07T09:43:18;4.60;99.90
12111;DHT22;6119;52.372;8.990;2023-12-07T09:46:06;4.60;99.90
12111;DHT22;6119;52.372;8.990;2023-12-07T09:48:52;4.70;99.90
12111;DHT22;6119;52.372;8.990;2023-12-07T09:51:41;4.70;99.90
12111;DHT22;6119;52.372;8.990;2023-12-07T09:54:29;4.70;99.90
12111;DHT22;6119;52.372;8.990;2023-12-07T09:57:16;4.80;99.90
12111;DHT22;6119;52.372;8.990;2023-12-07T10:00:06;4.80;99.90
12111;DHT22;6119;52.372;8.990;2023-12-07T10:02:55;4.80;99.90
12111;DHT22;6119;52.372;8.990;2023-12-07T10:05:54;4.80;99.90
12111;DHT22;6119;52.372;8.990;2023-12-07T10:08:41;4.90;99.90
12111;DHT22;6119;52.372;8.990;2023-12-07T10:11:31;4.90;99.90
12111;DHT22;6119;52.372;8.990;2023-12-07T10:14:18;4.80;99.90
12111;DHT22;6119;52.372;8.990;2023-12-07T10:17:06;4.90;99.90
12111;DHT22;6119;52.372;8.990;2023-12-07T10:20:06;4.90;99.90
12111;DHT22;6119;52.372;8.990;2023-12-07T10:23:01;4.90;99.90
12111;DHT22;6119;52.372;8.990;2023-12-07T10:25:49;4.90;99.90
12111;DHT22;6119;52.372;8.990;2023-12-07T10:28:36;4.90;99.90
12111;DHT22;6119;52.372;8.990;2023-12-07T10:31:23;4.90;99.90
12111;DHT22;6119;52.372;8.990;2023-12-07T10:34:11;4.90;99.90
12111;DHT22;6119;52.372;8.990;2023-12-07T10:36:58;5.00;99.90
12111;DHT22;6119;52.372;8.990;2023-12-07T10:39:44;5.00;99.90
12111;DHT22;6119;52.372;8.990;2023-12-07T10:42:33;5.10;99.90
12111;DHT22;6119;52.372;8.990;2023-12-07T10:45:22;5.10;99.90
12111;DHT22;6119;52.372;8.990;2023-12-07T10:48:11;5.10;99.90
12111;DHT22;6119;52.372;8.990;2023-12-07T10:51:00;5.20;99.90
12111;DHT22;6119;52.372;8.990;2023-12-07T10:53:51;5.20;99.90
12111;DHT22;6119;52.372;8.990;2023-12-07T10:56:42;5.20;99.90
12111;DHT22;6119;52.372;8.990;2023-12-07T10:59:30;5.20;99.90
12111;DHT22;6119;52.372;8.990;2023-12-07T11:02:21;5.30;99.90
12111;DHT22;6119;52.372;8.990;2023-12-07T11:05:08;5.40;99.90
12111;DHT22;6119;52.372;8.990;2023-12-07T11:08:04;5.50;99.90
12111;DHT22;6119;52.372;8.990;2023-12-07T11:11:00;5.50;99.90
12111;DHT22;6119;52.372;8.990;2023-12-07T11:13:52;5.50;99.90
12111;DHT22;6119;52.372;8.990;2023-12-07T11:16:44;5.40;99.90
12111;DHT22;6119;52.372;8.990;2023-12-07T11:19:43;5.50;99.90
12111;DHT22;6119;52.372;8.990;2023-12-07T11:22:31;5.50;99.90
12111;DHT22;6119;52.372;8.990;2023-12-07T11:25:20;5.50;99.90
12111;DHT22;6119;52.372;8.990;2023-12-07T11:28:07;5.40;99.90
12111;DHT22;6119;52.372;8.990;2023-12-07T11:30:55;5.50;99.90
12111;DHT22;6119;52.372;8.990;2023-12-07T11:33:42;5.50;99.90
12111;DHT22;6119;52.372;8.990;2023-12-07T11:36:31;5.50;99.90
12111;DHT22;6119;52.372;8.990;2023-12-07T11:39:18;5.40;99.90
12111;DHT22;6119;52.372;8.990;2023-12-07T11:42:17;5.50;99.90
12111;DHT22;6119;52.372;8.990;2023-12-07T11:45:06;5.50;99.90
12111;DHT22;6119;52.372;8.990;2023-12-07T11:48:06;5.50;99.90
12111;DHT22;6119;52.372;8.990;2023-12-07T11:50:57;5.50;99.90
12111;DHT22;6119;52.372;8.990;2023-12-07T11:53:45;5.60;99.90
12111;DHT22;6119;52.372;8.990;2023-12-07T11:56:34;5.70;99.90
12111;DHT22;6119;52.372;8.990;2023-12-07T11:59:23;5.70;99.90
12111;DHT22;6119;52.372;8.990;2023-12-07T12:02:18;5.70;99.90
12111;DHT22;6119;52.372;8.990;2023-12-07T12:05:06;5.70;99.90
12111;DHT22;6119;52.372;8.990;2023-12-07T12:07:53;5.70;99.90
12111;DHT22;6119;52.372;8.990;2023-12-07T12:10:41;5.70;99.90
12111;DHT22;6119;52.372;8.990;2023-12-07T12:13:29;4.00;99.90
12111;DHT22;6119;52.372;8.990;2023-12-07T12:16:18;5.80;99.90
12111;DHT22;6119;52.372;8.990;2023-12-07T12:19:04;5.80;99.90
12111;DHT22;6119;52.372;8.990;2023-12-07T12:21:55;5.80;99.90
12111;DHT22;6119;52.372;8.990;2023-12-07T12:24:45;5.70;99.90
12111;DHT22;6119;52.372;8.990;2023-12-07T12:27:31;5.70;99.90
12111;DHT22;6119;52.372;8.990;2023-12-07T12:30:19;5.70;99.90
12111;DHT22;6119;52.372;8.990;2023-12-07T12:33:09;5.60;99.90
12111;DHT22;6119;52.372;8.990;2023-12-07T12:36:02;5.60;99.90
12111;DHT22;6119;52.372;8.990;2023-12-07T12:38:50;5.60;99.90
12111;DHT22;6119;52.372;8.990;2023-12-07T12:41:37;5.50;99.90
12111;DHT22;6119;52.372;8.990;2023-12-07T12:44:24;5.60;99.90
12111;DHT22;6119;52.372;8.990;2023-12-07T12:47:21;5.60;99.90
12111;DHT22;6119;52.372;8.990;2023-12-07T12:50:10;5.60;99.90
12111;DHT22;6119;52.372;8.990;2023-12-07T12:52:58;5.60;99.90
12111;DHT22;6119;52.372;8.990;2023-12-07T12:55:45;5.60;99.90
12111;DHT22;6119;52.372;8.990;2023-12-07T12:58:33;5.60;99.90
12111;DHT22;6119;52.372;8.990;2023-12-07T13:01:19;5.60;99.90
12111;DHT22;6119;52.372;8.990;2023-12-07T13:04:08;5.70;99.90
12111;DHT22;6119;52.372;8.990;2023-12-07T13:06:57;5.80;99.90
12111;DHT22;6119;52.372;8.990;2023-12-07T13:09:43;5.00;99.90
12111;DHT22;6119;52.372;8.990;2023-12-07T13:12:30;5.80;99.90
12111;DHT22;6119;52.372;8.990;2023-12-07T13:15:19;5.90;99.90
12111;DHT22;6119;52.372;8.990;2023-12-07T13:18:06;5.80;99.90
12111;DHT22;6119;52.372;8.990;2023-12-07T13:20:54;5.90;99.90
12111;DHT22;6119;52.372;8.990;2023-12-07T13:23:43;6.00;99.90
12111;DHT22;6119;52.372;8.990;2023-12-07T13:26:31;6.00;99.90
12111;DHT22;6119;52.372;8.990;2023-12-07T13:29:18;6.10;99.90
12111;DHT22;6119;52.372;8.990;2023-12-07T13:32:19;6.10;99.90
12111;DHT22;6119;52.372;8.990;2023-12-07T13:35:07;6.20;99.90
12111;DHT22;6119;52.372;8.990;2023-12-07T13:37:54;6.10;99.90
12111;DHT22;6119;52.372;8.990;2023-12-07T13:40:42;6.10;99.90
12111;DHT22;6119;52.372;8.990;2023-12-07T13:43:28;6.10;99.90
12111;DHT22;6119;52.372;8.990;2023-12-07T13:46:18;6.10;99.90
12111;DHT22;6119;52.372;8.990;2023-12-07T13:49:06;6.00;99.90
12111;DHT22;6119;52.372;8.990;2023-12-07T13:52:03;5.90;99.90
12111;DHT22;6119;52.372;8.990;2023-12-07T13:54:53;5.80;99.90
12111;DHT22;6119;52.372;8.990;2023-12-07T13:57:41;5.70;99.90
12111;DHT22;6119;52.372;8.990;2023-12-07T14:00:27;5.70;99.90
12111;DHT22;6119;52.372;8.990;2023-12-07T14:03:14;5.70;99.90
12111;DHT22;6119;52.372;8.990;2023-12-07T14:06:01;5.70;99.90
12111;DHT22;6119;52.372;8.990;2023-12-07T14:09:02;5.70;99.90
12111;DHT22;6119;52.372;8.990;2023-12-07T14:11:49;5.60;99.90
12111;DHT22;6119;52.372;8.990;2023-12-07T14:14:37;5.60;99.90
12111;DHT22;6119;52.372;8.990;2023-12-07T14:17:24;5.60;99.90
12111;DHT22;6119;52.372;8.990;2023-12-07T14:20:22;5.50;99.90
12111;DHT22;6119;52.372;8.990;2023-12-07T14:23:31;5.50;99.90
12111;DHT22;6119;52.372;8.990;2023-12-07T14:26:18;5.50;99.90
12111;DHT22;6119;52.372;8.990;2023-12-07T14:29:04;5.40;99.90
12111;DHT22;6119;52.372;8.990;2023-12-07T14:31:55;5.40;99.90
12111;DHT22;6119;52.372;8.990;2023-12-07T14:34:42;5.40;99.90
12111;DHT22;6119;52.372;8.990;2023-12-07T14:37:29;5.30;99.90
12111;DHT22;6119;52.372;8.990;2023-12-07T14:40:16;5.30;99.90
12111;DHT22;6119;52.372;8.990;2023-12-07T14:43:02;5.20;99.90
12111;DHT22;6119;52.372;8.990;2023-12-07T14:45:49;5.30;99.90
12111;DHT22;6119;52.372;8.990;2023-12-07T14:48:39;5.10;99.90
12111;DHT22;6119;52.372;8.990;2023-12-07T14:51:26;5.10;99.90
12111;DHT22;6119;52.372;8.990;2023-12-07T14:54:12;5.00;99.90
12111;DHT22;6119;52.372;8.990;2023-12-07T14:57:10;5.00;99.90
12111;DHT22;6119;52.372;8.990;2023-12-07T14:59:58;4.90;99.90
12111;DHT22;6119;52.372;8.990;2023-12-07T15:02:45;4.90;99.90
12111;DHT22;6119;52.372;8.990;2023-12-07T15:05:33;4.70;99.90
12111;DHT22;6119;52.372;8.990;2023-12-07T15:08:20;4.60;99.90
12111;DHT22;6119;52.372;8.990;2023-12-07T15:11:07;4.50;99.90
12111;DHT22;6119;52.372;8.990;2023-12-07T15:13:53;4.60;99.90
12111;DHT22;6119;52.372;8.990;2023-12-07T15:16:40;4.40;99.90
12111;DHT22;6119;52.372;8.990;2023-12-07T15:19:28;4.30;99.90
12111;DHT22;6119;52.372;8.990;2023-12-07T15:22:16;4.20;99.90
12111;DHT22;6119;52.372;8.990;2023-12-07T15:25:03;4.10;99.90
12111;DHT22;6119;52.372;8.990;2023-12-07T15:27:51;4.10;99.90
12111;DHT22;6119;52.372;8.990;2023-12-07T15:30:37;4.10;99.90
12111;DHT22;6119;52.372;8.990;2023-12-07T15:33:24;4.00;99.90
12111;DHT22;6119;52.372;8.990;2023-12-07T15:36:11;3.90;99.90
12111;DHT22;6119;52.372;8.990;2023-12-07T15:39:00;3.90;99.90
12111;DHT22;6119;52.372;8.990;2023-12-07T15:41:47;3.90;99.90
12111;DHT22;6119;52.372;8.990;2023-12-07T15:44:34;3.90;99.90
12111;DHT22;6119;52.372;8.990;2023-12-07T15:47:20;3.80;99.90
12111;DHT22;6119;52.372;8.990;2023-12-07T15:50:08;3.70;99.90
12111;DHT22;6119;52.372;8.990;2023-12-07T15:52:56;3.70;99.90
12111;DHT22;6119;52.372;8.990;2023-12-07T15:55:45;3.60;99.90
12111;DHT22;6119;52.372;8.990;2023-12-07T15:58:32;3.50;99.90
12111;DHT22;6119;52.372;8.990;2023-12-07T16:01:18;3.50;99.90
12111;DHT22;6119;52.372;8.990;2023-12-07T16:04:05;3.40;99.90
12111;DHT22;6119;52.372;8.990;2023-12-07T16:06:52;3.40;99.90
12111;DHT22;6119;52.372;8.990;2023-12-07T16:09:39;3.30;99.90
12111;DHT22;6119;52.372;8.990;2023-12-07T16:12:29;3.40;99.90
12111;DHT22;6119;52.372;8.990;2023-12-07T16:15:16;3.40;99.90
12111;DHT22;6119;52.372;8.990;2023-12-07T16:18:02;3.40;99.90
12111;DHT22;6119;52.372;8.990;2023-12-07T16:20:49;3.30;99.90
12111;DHT22;6119;52.372;8.990;2023-12-07T16:23:36;3.30;99.90
12111;DHT22;6119;52.372;8.990;2023-12-07T16:26:23;3.40;99.90
12111;DHT22;6119;52.372;8.990;2023-12-07T16:29:11;3.30;99.90
12111;DHT22;6119;52.372;8.990;2023-12-07T16:31:57;3.30;99.90
12111;DHT22;6119;52.372;8.990;2023-12-07T16:34:44;3.30;99.90
12111;DHT22;6119;52.372;8.990;2023-12-07T16:37:32;3.30;99.90
12111;DHT22;6119;52.372;8.990;2023-12-07T16:40:18;3.30;99.90
12111;DHT22;6119;52.372;8.990;2023-12-07T16:43:05;3.30;99.90
12111;DHT22;6119;52.372;8.990;2023-12-07T16:45:53;3.30;99.90
12111;DHT22;6119;52.372;8.990;2023-12-07T16:48:39;3.30;99.90
12111;DHT22;6119;52.372;8.990;2023-12-07T16:51:26;3.20;99.90
12111;DHT22;6119;52.372;8.990;2023-12-07T16:54:12;3.20;99.90
12111;DHT22;6119;52.372;8.990;2023-12-07T16:56:59;3.20;99.90
12111;DHT22;6119;52.372;8.990;2023-12-07T16:59:45;3.20;99.90
12111;DHT22;6119;52.372;8.990;2023-12-07T17:02:34;3.20;99.90
12111;DHT22;6119;52.372;8.990;2023-12-07T17:05:21;3.10;99.90
12111;DHT22;6119;52.372;8.990;2023-12-07T17:08:08;3.10;99.90
12111;DHT22;6119;52.372;8.990;2023-12-07T17:10:54;3.10;99.90
12111;DHT22;6119;52.372;8.990;2023-12-07T17:13:41;3.10;99.90
12111;DHT22;6119;52.372;8.990;2023-12-07T17:16:28;3.10;99.90
12111;DHT22;6119;52.372;8.990;2023-12-07T17:19:17;3.10;99.90
12111;DHT22;6119;52.372;8.990;2023-12-07T17:22:04;3.10;99.90
12111;DHT22;6119;52.372;8.990;2023-12-07T17:24:52;3.00;99.90
12111;DHT22;6119;52.372;8.990;2023-12-07T17:27:39;2.90;99.90
12111;DHT22;6119;52.372;8.990;2023-12-07T17:30:26;2.90;99.90
12111;DHT22;6119;52.372;8.990;2023-12-07T17:33:12;2.90;99.90
12111;DHT22;6119;52.372;8.990;2023-12-07T17:36:01;2.90;99.90
12111;DHT22;6119;52.372;8.990;2023-12-07T17:38:48;2.90;99.90
12111;DHT22;6119;52.372;8.990;2023-12-07T17:41:36;3.00;99.90
12111;DHT22;6119;52.372;8.990;2023-12-07T17:44:23;3.00;99.90
12111;DHT22;6119;52.372;8.990;2023-12-07T17:47:09;3.00;99.90
12111;DHT22;6119;52.372;8.990;2023-12-07T17:49:56;3.10;99.90
12111;DHT22;6119;52.372;8.990;2023-12-07T17:52:44;3.10;99.90
12111;DHT22;6119;52.372;8.990;2023-12-07T17:55:32;3.20;99.90
12111;DHT22;6119;52.372;8.990;2023-12-07T17:58:18;3.10;99.90
12111;DHT22;6119;52.372;8.990;2023-12-07T18:01:05;3.20;99.90
12111;DHT22;6119;52.372;8.990;2023-12-07T18:03:52;3.20;99.90
12111;DHT22;6119;52.372;8.990;2023-12-07T18:06:43;3.20;99.90
12111;DHT22;6119;52.372;8.990;2023-12-07T18:09:32;3.20;99.90
12111;DHT22;6119;52.372;8.990;2023-12-07T18:12:19;3.20;99.90
12111;DHT22;6119;52.372;8.990;2023-12-07T18:15:06;3.30;99.90